createdAt,value
2019-03-31T00:01:13.736Z,11.38
2019-03-31T00:03:32.795Z,11.48
2019-03-31T00:05:59.465Z,11.21
2019-03-31T00:08:27.108Z,11.05
2019-03-31T00:10:53.701Z,10.86
2019-03-31T00:13:20.354Z,11.02
2019-03-31T00:15:47.956Z,10.99
2019-03-31T00:18:14.676Z,11.06
2019-03-31T00:20:42.529Z,10.88
2019-03-31T00:25:56.068Z,11.07
2019-03-31T00:28:22.900Z,10.97
2019-03-31T00:30:50.160Z,10.83
2019-03-31T00:33:16.875Z,10.77
2019-03-31T00:35:43.941Z,10.79
2019-03-31T00:38:10.813Z,10.72
2019-03-31T00:40:37.526Z,10.84
2019-03-31T00:43:04.147Z,10.79
2019-03-31T00:45:30.746Z,10.78
2019-03-31T00:47:57.761Z,10.53
2019-03-31T00:50:24.375Z,10.28
2019-03-31T00:52:51.426Z,10.22
2019-03-31T00:55:18.326Z,10.39
2019-03-31T00:57:45.326Z,10.38
2019-03-31T01:00:12.020Z,10.29
2019-03-31T01:02:38.699Z,10.20
2019-03-31T01:05:05.401Z,10.40
2019-03-31T01:07:32.020Z,10.52
2019-03-31T01:09:58.679Z,10.34
2019-03-31T01:12:25.285Z,10.36
2019-03-31T01:14:52.254Z,10.28
2019-03-31T01:17:19.290Z,10.31
2019-03-31T01:19:46.105Z,10.31
2019-03-31T01:22:12.726Z,10.28
2019-03-31T01:24:39.749Z,10.30
2019-03-31T01:27:06.343Z,10.41
2019-03-31T01:29:33.275Z,10.30
2019-03-31T01:32:00.104Z,10.29
2019-03-31T01:34:26.744Z,10.23
2019-03-31T01:36:53.712Z,10.02
2019-03-31T01:39:21.493Z,9.97
2019-03-31T01:41:48.288Z,10.01
2019-03-31T01:44:14.975Z,10.12
2019-03-31T01:46:41.645Z,9.92
2019-03-31T01:49:08.406Z,9.71
2019-03-31T01:51:35.013Z,9.69
2019-03-31T01:54:01.919Z,9.66
2019-03-31T01:56:28.686Z,9.68
2019-03-31T01:58:55.578Z,9.86
2019-03-31T02:01:22.446Z,9.98
2019-03-31T02:03:49.439Z,10.03
2019-03-31T02:06:16.331Z,9.88
2019-03-31T02:08:43.582Z,9.74
2019-03-31T02:11:10.405Z,9.73
2019-03-31T02:13:37.063Z,9.69
2019-03-31T02:16:03.887Z,9.58
2019-03-31T02:18:30.509Z,9.35
2019-03-31T02:23:43.064Z,9.32
2019-03-31T02:26:10.050Z,9.44
2019-03-31T02:28:36.670Z,9.38
2019-03-31T02:31:03.496Z,9.49
2019-03-31T02:33:30.183Z,9.62
2019-03-31T02:35:56.819Z,9.44
2019-03-31T02:38:23.663Z,9.55
2019-03-31T02:40:50.332Z,9.47
2019-03-31T02:43:17.359Z,9.66
2019-03-31T02:45:43.966Z,9.47
2019-03-31T02:48:10.923Z,9.38
2019-03-31T02:50:37.581Z,9.17
2019-03-31T02:53:06.325Z,9.24
2019-03-31T02:55:32.872Z,9.26
2019-03-31T02:57:59.753Z,9.12
2019-03-31T03:00:26.382Z,9.20
2019-03-31T03:02:53.062Z,8.98
2019-03-31T03:05:20.507Z,9.07
2019-03-31T03:07:49.176Z,8.97
2019-03-31T03:10:16.086Z,9.06
2019-03-31T03:12:42.667Z,9.07
2019-03-31T03:15:09.957Z,9.04
2019-03-31T03:17:36.858Z,9.02
2019-03-31T03:20:03.578Z,8.87
2019-03-31T03:22:30.209Z,8.79
2019-03-31T03:24:56.878Z,8.99
2019-03-31T03:27:23.526Z,9.01
2019-03-31T03:29:50.236Z,9.21
2019-03-31T03:32:17.119Z,9.36
2019-03-31T03:34:43.705Z,9.34
2019-03-31T03:37:10.299Z,9.05
2019-03-31T03:39:36.919Z,8.97
2019-03-31T03:42:05.182Z,8.84
2019-03-31T03:44:31.979Z,9.11
2019-03-31T03:46:58.576Z,9.21
2019-03-31T03:49:25.651Z,9.10
2019-03-31T03:51:52.262Z,9.12
2019-03-31T03:54:19.349Z,9.03
2019-03-31T03:56:45.958Z,9.11
2019-03-31T03:59:12.626Z,8.79
2019-03-31T04:01:39.248Z,8.92
2019-03-31T04:04:07.226Z,8.99
2019-03-31T04:06:34.173Z,8.99
2019-03-31T04:09:00.803Z,9.13
2019-03-31T04:11:27.459Z,9.19
2019-03-31T04:13:54.162Z,9.08
2019-03-31T04:16:20.825Z,9.04
2019-03-31T04:18:47.422Z,8.98
2019-03-31T04:21:14.322Z,8.92
2019-03-31T04:23:41.039Z,8.86
2019-03-31T04:26:08.394Z,8.71
2019-03-31T04:28:35.092Z,8.54
2019-03-31T04:31:01.668Z,8.55
2019-03-31T04:33:28.344Z,8.54
2019-03-31T04:35:54.988Z,8.50
2019-03-31T04:38:22.177Z,8.76
2019-03-31T04:40:49.020Z,8.94
2019-03-31T04:43:16.879Z,8.81
2019-03-31T04:45:43.605Z,8.97
2019-03-31T04:48:10.570Z,8.98
2019-03-31T04:50:38.034Z,8.99
2019-03-31T04:53:04.654Z,9.06
2019-03-31T04:55:31.536Z,9.06
2019-03-31T04:57:58.610Z,9.13
2019-03-31T05:00:25.268Z,9.16
2019-03-31T05:02:51.878Z,9.35
2019-03-31T05:05:18.819Z,9.36
2019-03-31T05:07:45.407Z,9.19
2019-03-31T05:10:12.377Z,9.34
2019-03-31T05:12:39.121Z,9.35
2019-03-31T05:15:05.818Z,9.26
2019-03-31T05:17:35.612Z,9.30
2019-03-31T05:20:01.353Z,9.37
2019-03-31T05:22:28.191Z,9.30
2019-03-31T05:24:54.786Z,9.33
2019-03-31T05:27:21.696Z,9.47
2019-03-31T05:29:48.477Z,9.56
2019-03-31T05:32:15.102Z,9.61
2019-03-31T05:34:42.030Z,9.70
2019-03-31T05:37:08.726Z,9.82
2019-03-31T05:39:35.297Z,10.03
2019-03-31T05:42:01.957Z,10.12
2019-03-31T05:44:28.924Z,10.24
2019-03-31T05:46:55.768Z,10.34
2019-03-31T05:49:22.680Z,10.52
2019-03-31T05:51:49.585Z,10.56
2019-03-31T05:54:16.626Z,10.65
2019-03-31T05:56:43.872Z,10.96
2019-03-31T05:59:10.475Z,11.10
2019-03-31T06:01:37.122Z,11.34
2019-03-31T06:04:03.723Z,11.48
2019-03-31T06:06:30.598Z,11.61
2019-03-31T06:08:57.446Z,11.74
2019-03-31T06:11:24.194Z,11.96
2019-03-31T06:13:50.955Z,12.19
2019-03-31T06:16:19.005Z,12.40
2019-03-31T06:18:45.613Z,12.67
2019-03-31T06:24:01.952Z,13.24
2019-03-31T06:26:30.926Z,13.38
2019-03-31T06:31:47.448Z,13.94
2019-03-31T06:34:15.603Z,14.12
2019-03-31T06:36:46.141Z,14.26
2019-03-31T06:39:39.236Z,14.40
2019-03-31T06:41:48.444Z,14.61
2019-03-31T06:44:18.348Z,14.56
2019-03-31T06:49:35.160Z,14.96
2019-03-31T06:52:05.288Z,14.91
2019-03-31T06:54:35.052Z,14.98
2019-03-31T06:57:02.398Z,15.18
2019-03-31T06:59:31.511Z,15.51
2019-03-31T07:02:03.281Z,15.82
2019-03-31T07:04:33.914Z,15.95
2019-03-31T07:07:03.064Z,16.08
2019-03-31T07:09:34.477Z,16.36
2019-03-31T07:12:04.210Z,16.68
2019-03-31T07:14:33.828Z,16.80
2019-03-31T07:17:01.499Z,17.12
2019-03-31T07:19:43.990Z,17.28
2019-03-31T07:22:15.005Z,17.39
2019-03-31T07:24:42.723Z,17.38
2019-03-31T07:27:10.311Z,17.40
2019-03-31T07:29:40.706Z,17.46
2019-03-31T07:32:14.186Z,17.63
2019-03-31T07:34:43.538Z,17.91
2019-03-31T07:40:00.241Z,18.26
2019-03-31T07:42:27.836Z,18.40
2019-03-31T07:44:58.555Z,18.70
2019-03-31T07:47:26.378Z,18.84
2019-03-31T07:49:55.011Z,18.93
2019-03-31T07:52:22.931Z,19.11
2019-03-31T07:54:52.867Z,19.32
2019-03-31T07:57:22.459Z,19.56
2019-03-31T07:59:50.201Z,19.57
2019-03-31T08:02:19.833Z,19.66
2019-03-31T08:04:47.656Z,19.56
2019-03-31T08:07:18.278Z,19.58
2019-03-31T08:09:47.873Z,19.62
2019-03-31T08:15:02.550Z,20.49
2019-03-31T08:17:32.355Z,20.57
2019-03-31T08:20:00.362Z,20.62
2019-03-31T08:27:45.634Z,21.05
2019-03-31T08:30:12.455Z,21.25
2019-03-31T08:32:39.077Z,21.46
2019-03-31T08:35:05.830Z,21.54
2019-03-31T08:37:32.749Z,21.75
2019-03-31T08:39:59.478Z,21.88
2019-03-31T08:42:26.364Z,22.13
2019-03-31T08:44:53.020Z,22.22
2019-03-31T08:47:20.142Z,22.42
2019-03-31T08:49:46.957Z,22.28
2019-03-31T08:52:13.612Z,22.32
2019-03-31T08:54:40.525Z,22.60
2019-03-31T08:57:07.522Z,22.65
2019-03-31T08:59:34.440Z,22.73
2019-03-31T09:02:03.241Z,22.78
2019-03-31T09:04:30.645Z,23.00
2019-03-31T09:06:57.489Z,23.14
2019-03-31T09:09:24.155Z,22.78
2019-03-31T09:11:50.969Z,23.03
2019-03-31T09:14:17.630Z,23.23
2019-03-31T09:16:44.657Z,23.08
2019-03-31T09:19:11.329Z,23.17
2019-03-31T09:21:38.467Z,23.32
2019-03-31T09:24:05.208Z,23.48
2019-03-31T09:26:31.830Z,23.44
2019-03-31T09:28:58.467Z,23.63
2019-03-31T09:31:25.089Z,23.72
2019-03-31T09:33:51.852Z,23.77
2019-03-31T09:36:18.898Z,24.08
2019-03-31T09:38:48.553Z,24.34
2019-03-31T09:41:14.976Z,24.33
2019-03-31T09:43:41.829Z,24.52
2019-03-31T09:46:08.402Z,24.67
2019-03-31T09:48:35.420Z,24.74
2019-03-31T09:51:02.077Z,24.83
2019-03-31T09:53:29.883Z,25.02
2019-03-31T09:55:56.779Z,25.19
2019-03-31T10:06:51.655Z,25.75
2019-03-31T10:12:16.322Z,25.64
2019-03-31T10:14:44.258Z,25.61
2019-03-31T10:17:10.898Z,25.48
2019-03-31T10:25:13.453Z,25.70
2019-03-31T10:27:40.469Z,25.72
2019-03-31T10:30:07.887Z,26.28
2019-03-31T10:32:34.804Z,26.57
2019-03-31T10:35:02.913Z,26.24
2019-03-31T10:37:29.795Z,26.36
2019-03-31T10:39:56.793Z,26.67
2019-03-31T10:42:23.732Z,26.62
2019-03-31T10:44:50.719Z,26.78
2019-03-31T10:47:17.384Z,27.03
2019-03-31T10:49:44.586Z,27.15
2019-03-31T10:52:12.568Z,27.08
2019-03-31T10:54:39.795Z,26.90
2019-03-31T10:57:07.746Z,26.62
2019-03-31T10:59:34.645Z,27.08
2019-03-31T11:02:01.535Z,27.17
2019-03-31T11:04:28.423Z,27.45
2019-03-31T11:06:59.655Z,26.81
2019-03-31T11:09:23.940Z,26.68
2019-03-31T11:11:50.828Z,26.45
2019-03-31T11:14:17.758Z,26.38
2019-03-31T11:16:44.678Z,26.04
2019-03-31T11:19:11.469Z,26.48
2019-03-31T11:21:40.375Z,26.71
2019-03-31T11:24:06.987Z,26.84
2019-03-31T11:26:33.890Z,27.21
2019-03-31T11:29:01.060Z,27.12
2019-03-31T11:31:29.817Z,27.45
2019-03-31T11:33:56.724Z,27.83
2019-03-31T11:36:23.637Z,27.86
2019-03-31T11:41:24.299Z,28.08
2019-03-31T11:46:40.579Z,28.58
2019-03-31T11:49:09.886Z,28.68
2019-03-31T11:51:37.824Z,28.62
2019-03-31T11:54:07.625Z,28.92
2019-03-31T11:56:35.797Z,28.62
2019-03-31T11:59:11.004Z,28.50
2019-03-31T12:01:40.433Z,28.43
2019-03-31T12:04:10.336Z,28.26
2019-03-31T12:06:39.804Z,28.38
2019-03-31T12:09:09.091Z,28.97
2019-03-31T12:11:37.684Z,29.41
2019-03-31T12:14:05.402Z,29.45
2019-03-31T12:16:32.718Z,29.13
2019-03-31T12:19:02.880Z,28.96
2019-03-31T12:24:21.480Z,29.56
2019-03-31T12:29:36.673Z,29.82
2019-03-31T12:32:11.522Z,29.70
2019-03-31T12:37:26.520Z,29.52
2019-03-31T12:39:55.904Z,29.29
2019-03-31T12:42:23.554Z,29.09
2019-03-31T12:44:57.965Z,28.87
2019-03-31T12:47:25.363Z,28.21
2019-03-31T12:50:04.622Z,28.39
2019-03-31T12:52:46.092Z,28.98
2019-03-31T12:55:06.639Z,29.18
2019-03-31T12:57:35.967Z,29.43
2019-03-31T13:00:10.052Z,29.29
2019-03-31T13:02:38.683Z,28.33
2019-03-31T13:05:08.295Z,28.27
2019-03-31T13:07:55.312Z,28.87
2019-03-31T13:10:12.467Z,29.02
2019-03-31T13:12:46.077Z,29.21
2019-03-31T13:18:05.457Z,28.17
2019-03-31T13:20:37.038Z,28.82
2019-03-31T13:25:54.767Z,29.06
2019-03-31T13:28:34.235Z,29.07
2019-03-31T13:36:40.792Z,28.96
2019-03-31T13:39:09.776Z,29.27
2019-03-31T13:41:40.324Z,29.08
2019-03-31T13:44:10.078Z,29.38
2019-03-31T13:46:41.642Z,29.49
2019-03-31T13:49:13.359Z,29.66
2019-03-31T13:51:43.026Z,28.99
2019-03-31T13:54:12.273Z,28.89
2019-03-31T13:56:40.157Z,28.96
2019-03-31T13:59:09.206Z,29.35
2019-03-31T14:04:23.199Z,29.80
2019-03-31T14:09:42.204Z,29.56
2019-03-31T14:12:21.923Z,29.52
2019-03-31T14:14:53.693Z,29.13
2019-03-31T14:17:24.628Z,28.63
2019-03-31T14:19:53.747Z,28.89
2019-03-31T14:22:21.902Z,29.32
2019-03-31T14:24:50.186Z,28.65
2019-03-31T14:27:16.734Z,27.92
2019-03-31T14:29:46.772Z,28.28
2019-03-31T14:32:25.144Z,28.83
2019-03-31T14:34:53.881Z,29.12
2019-03-31T14:37:26.009Z,29.17
2019-03-31T14:39:56.662Z,29.25
2019-03-31T14:45:11.389Z,28.92
2019-03-31T14:53:18.663Z,28.87
2019-03-31T14:58:36.956Z,28.66
2019-03-31T15:03:58.140Z,28.79
2019-03-31T15:06:28.708Z,28.97
2019-03-31T15:09:00.080Z,28.97
2019-03-31T15:11:28.097Z,28.88
2019-03-31T15:13:59.728Z,28.65
2019-03-31T15:16:28.093Z,28.36
2019-03-31T15:21:44.487Z,28.64
2019-03-31T15:24:16.670Z,28.55
2019-03-31T15:26:48.404Z,28.72
2019-03-31T15:32:04.438Z,28.48
2019-03-31T15:34:35.436Z,27.85
2019-03-31T15:42:47.143Z,27.34
2019-03-31T15:45:24.405Z,27.49
2019-03-31T15:47:57.380Z,27.09
2019-03-31T15:50:26.847Z,27.07
2019-03-31T15:55:37.031Z,27.40
2019-03-31T15:58:05.412Z,27.48
2019-03-31T16:03:30.224Z,27.39
2019-03-31T16:08:44.821Z,27.50
2019-03-31T16:11:16.887Z,27.25
2019-03-31T16:13:45.220Z,27.10
2019-03-31T16:16:26.144Z,27.00
2019-03-31T16:18:49.162Z,26.85
2019-03-31T16:21:18.398Z,26.46
2019-03-31T16:26:22.928Z,26.40
2019-03-31T16:29:03.504Z,26.35
2019-03-31T16:34:21.406Z,26.15
2019-03-31T16:39:50.036Z,25.98
2019-03-31T16:42:25.947Z,25.85
2019-03-31T16:44:58.415Z,25.72
2019-03-31T16:47:25.801Z,25.48
2019-03-31T16:49:53.404Z,25.32
2019-03-31T16:52:22.586Z,25.07
2019-03-31T16:54:55.065Z,24.83
2019-03-31T16:57:27.672Z,24.67
2019-03-31T17:00:04.089Z,24.51
2019-03-31T17:02:29.893Z,24.38
2019-03-31T17:05:01.205Z,24.43
2019-03-31T17:07:42.272Z,24.34
2019-03-31T17:10:27.146Z,24.26
2019-03-31T17:12:57.581Z,24.33
2019-03-31T17:15:25.855Z,24.37
2019-03-31T17:17:57.925Z,24.32
2019-03-31T17:20:27.930Z,24.22
2019-03-31T17:22:55.078Z,24.18
2019-03-31T17:25:27.766Z,24.12
2019-03-31T17:27:54.801Z,23.97
2019-03-31T17:30:22.920Z,23.85
2019-03-31T17:32:49.832Z,23.82
2019-03-31T17:35:22.979Z,23.77
2019-03-31T17:37:50.290Z,23.67
2019-03-31T17:40:20.032Z,23.63
2019-03-31T17:42:48.759Z,23.55
2019-03-31T17:45:18.061Z,23.59
2019-03-31T17:47:59.652Z,23.52
2019-03-31T17:50:18.504Z,23.52
2019-03-31T17:53:04.602Z,23.47
2019-03-31T17:56:40.860Z,23.39
2019-03-31T17:58:00.820Z,23.48
2019-03-31T18:00:28.119Z,23.36
2019-03-31T18:03:20.024Z,23.25
2019-03-31T18:05:43.951Z,23.13
2019-03-31T18:08:10.926Z,22.99
2019-03-31T18:10:37.515Z,22.82
2019-03-31T18:13:07.321Z,22.64
2019-03-31T18:15:34.205Z,22.48
2019-03-31T18:18:00.976Z,22.26
2019-03-31T18:20:27.915Z,22.19
2019-03-31T18:22:54.534Z,22.19
2019-03-31T18:25:22.735Z,22.10
2019-03-31T18:27:50.216Z,22.03
2019-03-31T18:30:17.083Z,21.99
2019-03-31T18:32:43.806Z,22.01
2019-03-31T18:35:10.448Z,21.95
2019-03-31T18:37:37.637Z,22.04
2019-03-31T18:40:04.268Z,22.01
2019-03-31T18:42:30.941Z,21.91
2019-03-31T18:44:57.999Z,21.92
2019-03-31T18:47:24.610Z,21.89
2019-03-31T18:49:53.479Z,21.71
2019-03-31T18:52:20.066Z,21.67
2019-03-31T18:54:47.175Z,21.56
2019-03-31T18:57:13.803Z,21.46
2019-03-31T18:59:40.403Z,21.33
2019-03-31T19:04:51.669Z,21.11
2019-03-31T19:07:19.294Z,20.96
2019-03-31T19:09:49.964Z,20.92
2019-03-31T19:12:16.987Z,20.87
2019-03-31T19:14:45.227Z,20.87
2019-03-31T19:17:16.398Z,20.81
2019-03-31T19:19:43.676Z,20.70
2019-03-31T19:24:58.179Z,20.31
2019-03-31T19:27:29.975Z,20.17
2019-03-31T19:30:00.595Z,20.31
2019-03-31T19:32:41.059Z,20.32
2019-03-31T19:37:48.568Z,20.39
2019-03-31T19:40:16.211Z,20.24
2019-03-31T19:42:51.840Z,20.27
2019-03-31T19:45:37.945Z,20.29
2019-03-31T19:48:10.862Z,20.27
2019-03-31T19:50:37.445Z,20.27
2019-03-31T19:53:04.280Z,20.29
2019-03-31T19:55:31.156Z,20.48
2019-03-31T20:00:48.155Z,20.50
2019-03-31T20:03:14.986Z,20.24
2019-03-31T20:05:44.855Z,20.22
2019-03-31T20:08:14.001Z,20.08
2019-03-31T20:10:40.871Z,20.10
2019-03-31T20:13:10.651Z,20.04
2019-03-31T20:15:37.029Z,20.01
2019-03-31T20:18:23.139Z,19.86
2019-03-31T20:20:50.774Z,19.85
2019-03-31T20:23:18.488Z,19.86
2019-03-31T20:25:48.425Z,19.84
2019-03-31T20:28:15.792Z,19.85
2019-03-31T20:30:43.444Z,19.81
2019-03-31T20:33:11.125Z,19.83
2019-03-31T20:35:40.542Z,19.76
2019-03-31T20:38:07.931Z,19.72
2019-03-31T20:41:03.084Z,19.68
2019-03-31T20:43:32.730Z,19.55
2019-03-31T20:46:04.288Z,19.44
2019-03-31T20:48:32.972Z,19.43
2019-03-31T20:51:00.712Z,19.56
2019-03-31T20:53:30.278Z,19.69
2019-03-31T20:55:59.225Z,19.79
2019-03-31T21:01:01.796Z,19.72
2019-03-31T21:06:21.129Z,19.38
2019-03-31T21:08:47.750Z,19.37
2019-03-31T21:11:15.538Z,19.51
2019-03-31T21:13:46.633Z,19.56
2019-03-31T21:16:16.598Z,19.53
2019-03-31T21:18:44.304Z,19.48
2019-03-31T21:23:44.287Z,19.34
2019-03-31T21:26:11.145Z,19.38
2019-03-31T21:28:38.133Z,19.34
2019-03-31T21:31:05.177Z,19.27
2019-03-31T21:33:46.415Z,19.10
2019-03-31T21:36:14.346Z,19.05
2019-03-31T21:38:41.055Z,19.10
2019-03-31T21:41:08.805Z,19.05
2019-03-31T21:43:36.896Z,18.85
2019-03-31T21:46:03.942Z,18.76
2019-03-31T21:48:30.619Z,18.71
2019-03-31T21:50:57.923Z,18.72
2019-03-31T21:53:25.099Z,18.72
2019-03-31T21:55:51.745Z,18.70
2019-03-31T21:58:18.524Z,18.92
2019-03-31T22:00:45.357Z,18.74
2019-03-31T22:03:12.067Z,18.60
2019-03-31T22:05:39.061Z,18.51
2019-03-31T22:08:06.028Z,18.56
2019-03-31T22:10:32.698Z,18.64
2019-03-31T22:12:59.851Z,18.56
2019-03-31T22:15:27.477Z,18.50
2019-03-31T22:17:54.084Z,18.51
2019-03-31T22:20:21.004Z,18.47
2019-03-31T22:22:48.686Z,18.41
2019-03-31T22:25:16.339Z,18.33
2019-03-31T22:27:43.089Z,18.27
2019-03-31T22:30:10.050Z,18.17
2019-03-31T22:32:37.692Z,18.10
2019-03-31T22:35:05.291Z,18.09
2019-03-31T22:37:35.223Z,17.97
2019-03-31T22:40:02.114Z,17.84
2019-03-31T22:42:29.434Z,17.82
2019-03-31T22:44:57.220Z,17.75
2019-03-31T22:47:24.824Z,17.75
2019-03-31T22:49:53.418Z,17.71
2019-03-31T22:52:20.148Z,17.61
2019-03-31T22:54:46.991Z,17.31
2019-03-31T22:57:14.134Z,17.15
2019-03-31T22:59:40.824Z,17.11
2019-03-31T23:02:08.708Z,16.93
2019-03-31T23:04:37.426Z,16.87
2019-03-31T23:09:50.077Z,16.80
2019-03-31T23:12:17.127Z,16.70
2019-03-31T23:14:44.800Z,16.68
2019-03-31T23:17:12.116Z,16.82
2019-03-31T23:19:42.901Z,16.69
2019-03-31T23:24:55.373Z,16.65
2019-03-31T23:27:22.020Z,16.35
2019-03-31T23:29:48.597Z,16.01
2019-03-31T23:32:15.859Z,16.10
2019-03-31T23:34:42.454Z,16.04
2019-03-31T23:37:09.342Z,15.78
2019-03-31T23:39:36.005Z,15.86
2019-03-31T23:42:03.145Z,15.80
2019-03-31T23:44:30.003Z,15.72
2019-03-31T23:46:56.612Z,15.70
2019-03-31T23:49:23.478Z,15.81
2019-03-31T23:51:50.066Z,15.62
2019-03-31T23:54:17.003Z,15.50
2019-03-31T23:56:43.668Z,15.50
2019-03-31T23:59:10.541Z,15.32
